sensor_id;sensor_type;location;lat;lon;timestamp;P1;durP1;ratioP1;P2;durP2;ratioP2
1877;SDS011;939;51.426;6.972;2023-07-22T08:08:50;4.57;;;2.97;;
1877;SDS011;939;51.426;6.972;2023-07-22T08:11:20;4.20;;;2.80;;
1877;SDS011;939;51.426;6.972;2023-07-22T08:13:48;7.23;;;4.17;;
1877;SDS011;939;51.426;6.972;2023-07-22T08:16:16;7.23;;;3.40;;
1877;SDS011;939;51.426;6.972;2023-07-22T08:18:43;6.50;;;3.43;;
1877;SDS011;939;51.426;6.972;2023-07-22T08:21:12;10.37;;;4.63;;
1877;SDS011;939;51.426;6.972;2023-07-22T08:23:40;11.17;;;3.80;;
1877;SDS011;939;51.426;6.972;2023-07-22T08:26:11;9.63;;;3.90;;
1877;SDS011;939;51.426;6.972;2023-07-22T08:28:38;10.50;;;3.67;;
1877;SDS011;939;51.426;6.972;2023-07-22T08:31:07;10.10;;;3.50;;
1877;SDS011;939;51.426;6.972;2023-07-22T08:33:35;5.20;;;3.03;;
1877;SDS011;939;51.426;6.972;2023-07-22T08:36:02;6.93;;;3.57;;
1877;SDS011;939;51.426;6.972;2023-07-22T08:38:30;5.20;;;4.10;;
1877;SDS011;939;51.426;6.972;2023-07-22T08:41:00;14.03;;;3.90;;
1877;SDS011;939;51.426;6.972;2023-07-22T08:43:28;4.87;;;3.43;;
1877;SDS011;939;51.426;6.972;2023-07-22T08:45:57;12.20;;;4.70;;
1877;SDS011;939;51.426;6.972;2023-07-22T08:48:27;6.37;;;3.17;;
1877;SDS011;939;51.426;6.972;2023-07-22T08:50:58;4.30;;;3.20;;
1877;SDS011;939;51.426;6.972;2023-07-22T08:53:29;5.47;;;3.23;;
1877;SDS011;939;51.426;6.972;2023-07-22T08:55:59;3.97;;;2.70;;
1877;SDS011;939;51.426;6.972;2023-07-22T08:58:27;7.40;;;4.90;;
1877;SDS011;939;51.426;6.972;2023-07-22T09:00:55;5.23;;;3.20;;
1877;SDS011;939;51.426;6.972;2023-07-22T09:03:23;6.23;;;2.83;;
1877;SDS011;939;51.426;6.972;2023-07-22T09:05:50;4.23;;;3.30;;
1877;SDS011;939;51.426;6.972;2023-07-22T09:08:18;8.20;;;3.37;;
1877;SDS011;939;51.426;6.972;2023-07-22T09:10:46;5.20;;;3.50;;
1877;SDS011;939;51.426;6.972;2023-07-22T09:13:15;5.20;;;3.20;;
1877;SDS011;939;51.426;6.972;2023-07-22T09:15:45;7.93;;;3.03;;
1877;SDS011;939;51.426;6.972;2023-07-22T09:18:14;7.70;;;3.40;;
1877;SDS011;939;51.426;6.972;2023-07-22T09:20:41;6.07;;;3.40;;
1877;SDS011;939;51.426;6.972;2023-07-22T09:23:08;4.73;;;3.07;;
1877;SDS011;939;51.426;6.972;2023-07-22T09:25:35;5.90;;;4.23;;
1877;SDS011;939;51.426;6.972;2023-07-22T09:28:02;5.80;;;3.80;;
1877;SDS011;939;51.426;6.972;2023-07-22T09:30:32;4.20;;;2.60;;
1877;SDS011;939;51.426;6.972;2023-07-22T09:33:00;3.70;;;2.40;;
1877;SDS011;939;51.426;6.972;2023-07-22T09:35:29;3.50;;;2.13;;
1877;SDS011;939;51.426;6.972;2023-07-22T09:37:57;6.13;;;3.33;;
1877;SDS011;939;51.426;6.972;2023-07-22T09:40:25;3.80;;;2.97;;
1877;SDS011;939;51.426;6.972;2023-07-22T09:42:53;4.07;;;3.17;;
1877;SDS011;939;51.426;6.972;2023-07-22T09:45:22;4.70;;;2.50;;
1877;SDS011;939;51.426;6.972;2023-07-22T09:47:52;3.30;;;2.50;;
1877;SDS011;939;51.426;6.972;2023-07-22T09:50:21;4.90;;;3.37;;
1877;SDS011;939;51.426;6.972;2023-07-22T09:52:50;4.30;;;2.77;;
1877;SDS011;939;51.426;6.972;2023-07-22T09:55:19;3.57;;;2.20;;
1877;SDS011;939;51.426;6.972;2023-07-22T09:57:50;5.93;;;3.40;;
1877;SDS011;939;51.426;6.972;2023-07-22T10:00:19;3.63;;;2.13;;
1877;SDS011;939;51.426;6.972;2023-07-22T10:02:47;4.20;;;2.97;;
1877;SDS011;939;51.426;6.972;2023-07-22T10:05:17;5.20;;;2.80;;
1877;SDS011;939;51.426;6.972;2023-07-22T10:07:45;6.00;;;2.10;;
1877;SDS011;939;51.426;6.972;2023-07-22T10:10:15;4.90;;;2.47;;
1877;SDS011;939;51.426;6.972;2023-07-22T10:12:43;2.83;;;1.87;;
1877;SDS011;939;51.426;6.972;2023-07-22T10:15:10;3.50;;;3.10;;
1877;SDS011;939;51.426;6.972;2023-07-22T10:17:38;12.33;;;2.77;;
1877;SDS011;939;51.426;6.972;2023-07-22T10:20:06;6.50;;;3.60;;
1877;SDS011;939;51.426;6.972;2023-07-22T10:22:36;3.40;;;2.40;;
1877;SDS011;939;51.426;6.972;2023-07-22T10:25:04;3.73;;;2.20;;
1877;SDS011;939;51.426;6.972;2023-07-22T10:27:33;3.60;;;2.23;;
1877;SDS011;939;51.426;6.972;2023-07-22T10:30:02;3.30;;;2.07;;
1877;SDS011;939;51.426;6.972;2023-07-22T10:32:33;3.27;;;2.47;;
1877;SDS011;939;51.426;6.972;2023-07-22T10:35:01;3.40;;;2.17;;
1877;SDS011;939;51.426;6.972;2023-07-22T10:37:29;3.70;;;2.37;;
1877;SDS011;939;51.426;6.972;2023-07-22T10:40:02;2.50;;;2.10;;
1877;SDS011;939;51.426;6.972;2023-07-22T10:42:50;3.77;;;2.70;;
1877;SDS011;939;51.426;6.972;2023-07-22T10:45:27;3.90;;;2.37;;
1877;SDS011;939;51.426;6.972;2023-07-22T10:48:02;3.20;;;2.50;;
1877;SDS011;939;51.426;6.972;2023-07-22T10:53:21;2.40;;;2.03;;
1877;SDS011;939;51.426;6.972;2023-07-22T10:56:18;10.37;;;3.10;;
1877;SDS011;939;51.426;6.972;2023-07-22T10:58:56;2.93;;;1.90;;
1877;SDS011;939;51.426;6.972;2023-07-22T11:01:24;2.30;;;1.80;;
1877;SDS011;939;51.426;6.972;2023-07-22T11:04:14;1.97;;;1.77;;
1877;SDS011;939;51.426;6.972;2023-07-22T11:06:55;2.50;;;2.20;;
1877;SDS011;939;51.426;6.972;2023-07-22T11:09:35;2.80;;;2.07;;
1877;SDS011;939;51.426;6.972;2023-07-22T11:12:05;2.90;;;1.93;;
1877;SDS011;939;51.426;6.972;2023-07-22T11:14:34;4.23;;;1.90;;
1877;SDS011;939;51.426;6.972;2023-07-22T11:17:03;2.80;;;1.70;;
1877;SDS011;939;51.426;6.972;2023-07-22T11:19:33;2.47;;;1.97;;
1877;SDS011;939;51.426;6.972;2023-07-22T11:22:00;5.33;;;2.03;;
1877;SDS011;939;51.426;6.972;2023-07-22T11:24:28;2.40;;;1.90;;
1877;SDS011;939;51.426;6.972;2023-07-22T11:26:55;2.93;;;2.13;;
1877;SDS011;939;51.426;6.972;2023-07-22T11:29:23;2.83;;;2.27;;
1877;SDS011;939;51.426;6.972;2023-07-22T11:31:51;2.67;;;1.90;;
1877;SDS011;939;51.426;6.972;2023-07-22T11:34:18;2.00;;;1.70;;
1877;SDS011;939;51.426;6.972;2023-07-22T11:36:46;2.17;;;1.50;;
1877;SDS011;939;51.426;6.972;2023-07-22T11:39:15;2.30;;;2.10;;
1877;SDS011;939;51.426;6.972;2023-07-22T11:41:44;2.90;;;2.53;;
1877;SDS011;939;51.426;6.972;2023-07-22T11:44:12;2.10;;;1.60;;
1877;SDS011;939;51.426;6.972;2023-07-22T11:46:51;3.00;;;1.83;;
1877;SDS011;939;51.426;6.972;2023-07-22T11:49:23;2.53;;;1.93;;
1877;SDS011;939;51.426;6.972;2023-07-22T11:51:55;2.47;;;1.90;;
1877;SDS011;939;51.426;6.972;2023-07-22T11:54:22;2.17;;;1.40;;
1877;SDS011;939;51.426;6.972;2023-07-22T11:56:49;4.17;;;1.80;;
1877;SDS011;939;51.426;6.972;2023-07-22T11:59:16;2.10;;;1.60;;
1877;SDS011;939;51.426;6.972;2023-07-22T12:01:44;2.40;;;1.90;;
1877;SDS011;939;51.426;6.972;2023-07-22T12:04:13;9.10;;;2.47;;
1877;SDS011;939;51.426;6.972;2023-07-22T12:06:40;2.33;;;1.70;;
1877;SDS011;939;51.426;6.972;2023-07-22T12:09:07;2.37;;;1.67;;
1877;SDS011;939;51.426;6.972;2023-07-22T12:11:36;2.57;;;1.80;;
1877;SDS011;939;51.426;6.972;2023-07-22T12:14:06;4.07;;;1.97;;
1877;SDS011;939;51.426;6.972;2023-07-22T12:16:34;3.90;;;1.97;;
1877;SDS011;939;51.426;6.972;2023-07-22T12:19:02;2.10;;;1.73;;
1877;SDS011;939;51.426;6.972;2023-07-22T12:21:31;2.60;;;1.77;;
1877;SDS011;939;51.426;6.972;2023-07-22T12:23:58;2.70;;;2.20;;
1877;SDS011;939;51.426;6.972;2023-07-22T12:26:26;3.30;;;1.70;;
1877;SDS011;939;51.426;6.972;2023-07-22T12:28:53;3.50;;;1.77;;
1877;SDS011;939;51.426;6.972;2023-07-22T12:31:20;2.63;;;1.47;;
1877;SDS011;939;51.426;6.972;2023-07-22T12:33:47;1.80;;;1.43;;
1877;SDS011;939;51.426;6.972;2023-07-22T12:36:14;3.50;;;2.00;;
1877;SDS011;939;51.426;6.972;2023-07-22T12:38:43;3.77;;;2.33;;
1877;SDS011;939;51.426;6.972;2023-07-22T12:41:10;3.47;;;2.00;;
1877;SDS011;939;51.426;6.972;2023-07-22T12:43:36;3.50;;;2.43;;
1877;SDS011;939;51.426;6.972;2023-07-22T12:46:04;2.03;;;1.47;;
1877;SDS011;939;51.426;6.972;2023-07-22T12:48:31;1.80;;;1.50;;
1877;SDS011;939;51.426;6.972;2023-07-22T12:50:58;6.07;;;2.30;;
1877;SDS011;939;51.426;6.972;2023-07-22T12:53:25;4.93;;;1.83;;
1877;SDS011;939;51.426;6.972;2023-07-22T12:55:54;3.37;;;1.80;;
1877;SDS011;939;51.426;6.972;2023-07-22T12:58:21;3.20;;;2.17;;
1877;SDS011;939;51.426;6.972;2023-07-22T13:00:48;2.83;;;2.20;;
1877;SDS011;939;51.426;6.972;2023-07-22T13:03:15;2.30;;;1.60;;
1877;SDS011;939;51.426;6.972;2023-07-22T13:05:42;3.53;;;2.23;;
1877;SDS011;939;51.426;6.972;2023-07-22T13:08:08;2.80;;;2.40;;
1877;SDS011;939;51.426;6.972;2023-07-22T13:10:35;12.60;;;2.00;;
1877;SDS011;939;51.426;6.972;2023-07-22T13:13:06;2.90;;;1.90;;
1877;SDS011;939;51.426;6.972;2023-07-22T13:15:33;2.30;;;1.70;;
1877;SDS011;939;51.426;6.972;2023-07-22T13:18:00;3.70;;;2.67;;
1877;SDS011;939;51.426;6.972;2023-07-22T13:20:27;3.30;;;1.80;;
1877;SDS011;939;51.426;6.972;2023-07-22T13:22:56;2.47;;;1.80;;
1877;SDS011;939;51.426;6.972;2023-07-22T13:25:23;2.30;;;1.77;;
1877;SDS011;939;51.426;6.972;2023-07-22T13:27:50;5.90;;;2.97;;
1877;SDS011;939;51.426;6.972;2023-07-22T13:30:18;3.30;;;2.10;;
1877;SDS011;939;51.426;6.972;2023-07-22T13:32:45;3.87;;;2.13;;
1877;SDS011;939;51.426;6.972;2023-07-22T13:35:12;7.00;;;2.27;;
1877;SDS011;939;51.426;6.972;2023-07-22T13:37:39;2.47;;;1.90;;
1877;SDS011;939;51.426;6.972;2023-07-22T13:40:06;4.07;;;1.90;;
1877;SDS011;939;51.426;6.972;2023-07-22T13:42:36;1.90;;;1.67;;
1877;SDS011;939;51.426;6.972;2023-07-22T13:45:03;4.33;;;2.20;;
1877;SDS011;939;51.426;6.972;2023-07-22T13:47:33;6.40;;;1.97;;
1877;SDS011;939;51.426;6.972;2023-07-22T13:50:00;1.90;;;1.57;;
1877;SDS011;939;51.426;6.972;2023-07-22T13:52:26;2.40;;;1.70;;
1877;SDS011;939;51.426;6.972;2023-07-22T13:54:53;2.13;;;1.63;;
1877;SDS011;939;51.426;6.972;2023-07-22T13:57:20;2.60;;;1.97;;
1877;SDS011;939;51.426;6.972;2023-07-22T13:59:47;3.10;;;2.33;;
1877;SDS011;939;51.426;6.972;2023-07-22T14:02:14;3.87;;;2.40;;
1877;SDS011;939;51.426;6.972;2023-07-22T14:04:44;2.17;;;1.70;;
1877;SDS011;939;51.426;6.972;2023-07-22T14:07:11;2.30;;;1.80;;
1877;SDS011;939;51.426;6.972;2023-07-22T14:09:38;3.27;;;1.77;;
1877;SDS011;939;51.426;6.972;2023-07-22T14:12:05;2.87;;;2.30;;
1877;SDS011;939;51.426;6.972;2023-07-22T14:14:33;2.70;;;1.80;;
1877;SDS011;939;51.426;6.972;2023-07-22T14:17:01;2.70;;;1.63;;
1877;SDS011;939;51.426;6.972;2023-07-22T14:19:29;4.23;;;2.27;;
1877;SDS011;939;51.426;6.972;2023-07-22T14:21:57;3.73;;;2.00;;
1877;SDS011;939;51.426;6.972;2023-07-22T14:24:24;2.70;;;1.73;;
1877;SDS011;939;51.426;6.972;2023-07-22T14:26:51;5.60;;;3.17;;
1877;SDS011;939;51.426;6.972;2023-07-22T14:29:18;3.60;;;2.33;;
1877;SDS011;939;51.426;6.972;2023-07-22T14:31:45;3.37;;;1.80;;
1877;SDS011;939;51.426;6.972;2023-07-22T14:34:13;2.33;;;1.80;;
1877;SDS011;939;51.426;6.972;2023-07-22T14:36:39;3.00;;;2.70;;
1877;SDS011;939;51.426;6.972;2023-07-22T14:39:08;5.43;;;2.07;;
1877;SDS011;939;51.426;6.972;2023-07-22T14:41:35;8.10;;;2.20;;
1877;SDS011;939;51.426;6.972;2023-07-22T14:44:02;3.53;;;1.80;;
1877;SDS011;939;51.426;6.972;2023-07-22T14:46:29;3.20;;;2.30;;
1877;SDS011;939;51.426;6.972;2023-07-22T14:48:56;4.03;;;2.10;;
1877;SDS011;939;51.426;6.972;2023-07-22T14:51:23;8.60;;;2.43;;
1877;SDS011;939;51.426;6.972;2023-07-22T14:53:50;2.73;;;2.17;;
1877;SDS011;939;51.426;6.972;2023-07-22T14:56:18;3.00;;;2.00;;
1877;SDS011;939;51.426;6.972;2023-07-22T14:58:45;3.80;;;2.47;;
1877;SDS011;939;51.426;6.972;2023-07-22T15:01:14;6.40;;;2.13;;
1877;SDS011;939;51.426;6.972;2023-07-22T15:03:41;2.27;;;1.77;;
1877;SDS011;939;51.426;6.972;2023-07-22T15:06:08;3.50;;;2.40;;
1877;SDS011;939;51.426;6.972;2023-07-22T15:08:35;2.63;;;1.87;;
1877;SDS011;939;51.426;6.972;2023-07-22T15:11:01;4.60;;;2.70;;
1877;SDS011;939;51.426;6.972;2023-07-22T15:13:30;3.50;;;2.03;;
1877;SDS011;939;51.426;6.972;2023-07-22T15:15:57;2.50;;;1.83;;
1877;SDS011;939;51.426;6.972;2023-07-22T15:18:24;2.67;;;1.33;;
1877;SDS011;939;51.426;6.972;2023-07-22T15:20:51;2.93;;;1.87;;
1877;SDS011;939;51.426;6.972;2023-07-22T15:23:18;2.87;;;1.90;;
1877;SDS011;939;51.426;6.972;2023-07-22T15:25:45;2.93;;;1.90;;
1877;SDS011;939;51.426;6.972;2023-07-22T15:28:12;2.77;;;2.07;;
1877;SDS011;939;51.426;6.972;2023-07-22T15:30:40;1.80;;;1.40;;
1877;SDS011;939;51.426;6.972;2023-07-22T15:33:07;1.97;;;1.20;;
1877;SDS011;939;51.426;6.972;2023-07-22T15:35:34;6.40;;;2.47;;
1877;SDS011;939;51.426;6.972;2023-07-22T15:38:01;2.70;;;1.70;;
1877;SDS011;939;51.426;6.972;2023-07-22T15:40:28;1.80;;;1.40;;
1877;SDS011;939;51.426;6.972;2023-07-22T15:42:55;2.20;;;1.90;;
1877;SDS011;939;51.426;6.972;2023-07-22T15:45:22;1.93;;;1.63;;
1877;SDS011;939;51.426;6.972;2023-07-22T15:47:50;3.17;;;2.00;;
1877;SDS011;939;51.426;6.972;2023-07-22T15:50:17;3.17;;;2.10;;
1877;SDS011;939;51.426;6.972;2023-07-22T15:52:44;2.40;;;1.40;;
1877;SDS011;939;51.426;6.972;2023-07-22T15:55:11;5.23;;;1.73;;
1877;SDS011;939;51.426;6.972;2023-07-22T15:57:39;2.80;;;1.77;;
1877;SDS011;939;51.426;6.972;2023-07-22T16:00:06;1.90;;;1.33;;
1877;SDS011;939;51.426;6.972;2023-07-22T16:02:36;3.10;;;1.90;;
1877;SDS011;939;51.426;6.972;2023-07-22T16:05:04;4.63;;;1.83;;
1877;SDS011;939;51.426;6.972;2023-07-22T16:07:32;2.53;;;1.70;;
1877;SDS011;939;51.426;6.972;2023-07-22T16:09:59;3.10;;;1.60;;
1877;SDS011;939;51.426;6.972;2023-07-22T16:12:26;3.73;;;1.83;;
1877;SDS011;939;51.426;6.972;2023-07-22T16:14:53;5.17;;;2.10;;
1877;SDS011;939;51.426;6.972;2023-07-22T16:17:20;3.60;;;1.83;;
1877;SDS011;939;51.426;6.972;2023-07-22T16:19:47;2.20;;;1.50;;
1877;SDS011;939;51.426;6.972;2023-07-22T16:22:15;2.90;;;1.50;;
1877;SDS011;939;51.426;6.972;2023-07-22T16:24:42;2.80;;;1.63;;
1877;SDS011;939;51.426;6.972;2023-07-22T16:27:09;4.20;;;2.07;;
1877;SDS011;939;51.426;6.972;2023-07-22T16:29:36;1.73;;;1.40;;
1877;SDS011;939;51.426;6.972;2023-07-22T16:32:06;1.87;;;1.20;;
1877;SDS011;939;51.426;6.972;2023-07-22T16:34:33;2.33;;;1.63;;
1877;SDS011;939;51.426;6.972;2023-07-22T16:37:00;2.93;;;1.97;;
1877;SDS011;939;51.426;6.972;2023-07-22T16:39:29;3.00;;;1.47;;
1877;SDS011;939;51.426;6.972;2023-07-22T16:41:56;2.73;;;1.60;;
1877;SDS011;939;51.426;6.972;2023-07-22T16:44:23;2.77;;;1.43;;
1877;SDS011;939;51.426;6.972;2023-07-22T16:46:50;1.80;;;1.37;;
1877;SDS011;939;51.426;6.972;2023-07-22T16:49:17;2.43;;;1.50;;
1877;SDS011;939;51.426;6.972;2023-07-22T16:51:44;2.63;;;1.53;;
1877;SDS011;939;51.426;6.972;2023-07-22T16:54:11;3.83;;;2.03;;
1877;SDS011;939;51.426;6.972;2023-07-22T16:56:41;2.00;;;1.43;;
1877;SDS011;939;51.426;6.972;2023-07-22T16:59:07;2.47;;;1.30;;
1877;SDS011;939;51.426;6.972;2023-07-22T17:01:34;5.63;;;1.83;;
1877;SDS011;939;51.426;6.972;2023-07-22T17:04:03;1.90;;;1.60;;
1877;SDS011;939;51.426;6.972;2023-07-22T17:06:32;5.73;;;2.30;;
1877;SDS011;939;51.426;6.972;2023-07-22T17:08:59;9.93;;;1.63;;
1877;SDS011;939;51.426;6.972;2023-07-22T17:11:26;3.73;;;1.60;;
1877;SDS011;939;51.426;6.972;2023-07-22T17:13:55;4.20;;;2.70;;
1877;SDS011;939;51.426;6.972;2023-07-22T17:16:22;4.17;;;2.33;;
1877;SDS011;939;51.426;6.972;2023-07-22T17:18:49;2.00;;;1.50;;
1877;SDS011;939;51.426;6.972;2023-07-22T17:21:16;1.90;;;1.70;;
1877;SDS011;939;51.426;6.972;2023-07-22T17:23:43;3.60;;;1.83;;
1877;SDS011;939;51.426;6.972;2023-07-22T17:26:10;2.43;;;1.90;;
1877;SDS011;939;51.426;6.972;2023-07-22T17:28:38;2.00;;;1.40;;
1877;SDS011;939;51.426;6.972;2023-07-22T17:31:06;3.03;;;2.43;;
1877;SDS011;939;51.426;6.972;2023-07-22T17:33:34;3.77;;;2.33;;
1877;SDS011;939;51.426;6.972;2023-07-22T17:36:01;2.43;;;1.77;;
1877;SDS011;939;51.426;6.972;2023-07-22T17:38:28;4.20;;;2.33;;
1877;SDS011;939;51.426;6.972;2023-07-22T17:41:00;7.00;;;2.30;;
1877;SDS011;939;51.426;6.972;2023-07-22T17:43:27;3.10;;;1.73;;
1877;SDS011;939;51.426;6.972;2023-07-22T17:45:54;2.53;;;1.80;;
1877;SDS011;939;51.426;6.972;2023-07-22T17:48:22;2.77;;;1.40;;
1877;SDS011;939;51.426;6.972;2023-07-22T17:50:49;4.03;;;2.50;;
1877;SDS011;939;51.426;6.972;2023-07-22T17:53:16;2.43;;;2.00;;
1877;SDS011;939;51.426;6.972;2023-07-22T17:55:43;2.97;;;1.90;;
1877;SDS011;939;51.426;6.972;2023-07-22T17:58:10;7.03;;;2.60;;
1877;SDS011;939;51.426;6.972;2023-07-22T18:00:37;3.33;;;1.70;;
1877;SDS011;939;51.426;6.972;2023-07-22T18:03:03;6.00;;;1.93;;
1877;SDS011;939;51.426;6.972;2023-07-22T18:05:32;8.33;;;2.43;;
1877;SDS011;939;51.426;6.972;2023-07-22T18:07:59;2.10;;;1.90;;
1877;SDS011;939;51.426;6.972;2023-07-22T18:10:26;2.57;;;1.80;;
1877;SDS011;939;51.426;6.972;2023-07-22T18:12:53;5.50;;;2.47;;
1877;SDS011;939;51.426;6.972;2023-07-22T18:15:20;3.87;;;2.20;;
1877;SDS011;939;51.426;6.972;2023-07-22T18:17:47;2.37;;;1.87;;
1877;SDS011;939;51.426;6.972;2023-07-22T18:20:14;2.43;;;1.60;;
1877;SDS011;939;51.426;6.972;2023-07-22T18:22:42;6.23;;;2.70;;
1877;SDS011;939;51.426;6.972;2023-07-22T18:25:09;4.20;;;2.80;;
1877;SDS011;939;51.426;6.972;2023-07-22T18:27:36;9.10;;;1.87;;
1877;SDS011;939;51.426;6.972;2023-07-22T18:30:03;6.70;;;1.90;;
1877;SDS011;939;51.426;6.972;2023-07-22T18:32:31;2.47;;;1.87;;
1877;SDS011;939;51.426;6.972;2023-07-22T18:34:57;1.90;;;1.30;;
1877;SDS011;939;51.426;6.972;2023-07-22T18:37:24;2.20;;;1.60;;
1877;SDS011;939;51.426;6.972;2023-07-22T18:39:53;2.23;;;1.50;;
1877;SDS011;939;51.426;6.972;2023-07-22T18:42:20;2.10;;;1.60;;
1877;SDS011;939;51.426;6.972;2023-07-22T18:44:47;14.60;;;1.90;;
1877;SDS011;939;51.426;6.972;2023-07-22T18:47:15;2.23;;;1.30;;
1877;SDS011;939;51.426;6.972;2023-07-22T18:49:42;4.20;;;2.47;;
1877;SDS011;939;51.426;6.972;2023-07-22T18:52:10;2.90;;;1.33;;
1877;SDS011;939;51.426;6.972;2023-07-22T18:54:36;1.80;;;1.60;;
1877;SDS011;939;51.426;6.972;2023-07-22T18:57:07;2.40;;;1.70;;
1877;SDS011;939;51.426;6.972;2023-07-22T18:59:35;2.20;;;1.80;;
1877;SDS011;939;51.426;6.972;2023-07-22T19:02:03;2.30;;;1.60;;
1877;SDS011;939;51.426;6.972;2023-07-22T19:04:31;10.40;;;3.40;;
1877;SDS011;939;51.426;6.972;2023-07-22T19:06:58;3.60;;;2.53;;
1877;SDS011;939;51.426;6.972;2023-07-22T19:09:25;3.87;;;1.90;;
1877;SDS011;939;51.426;6.972;2023-07-22T19:11:52;3.33;;;2.10;;
1877;SDS011;939;51.426;6.972;2023-07-22T19:14:20;2.40;;;1.90;;
1877;SDS011;939;51.426;6.972;2023-07-22T19:16:50;3.13;;;1.80;;
1877;SDS011;939;51.426;6.972;2023-07-22T19:19:17;3.30;;;2.47;;
1877;SDS011;939;51.426;6.972;2023-07-22T19:21:44;8.90;;;2.33;;
1877;SDS011;939;51.426;6.972;2023-07-22T19:24:11;2.53;;;1.47;;
1877;SDS011;939;51.426;6.972;2023-07-22T19:26:38;4.07;;;2.17;;
1877;SDS011;939;51.426;6.972;2023-07-22T19:29:05;2.80;;;1.73;;
1877;SDS011;939;51.426;6.972;2023-07-22T19:31:33;4.43;;;2.07;;
1877;SDS011;939;51.426;6.972;2023-07-22T19:34:00;4.60;;;1.50;;
1877;SDS011;939;51.426;6.972;2023-07-22T19:36:27;5.63;;;2.00;;
1877;SDS011;939;51.426;6.972;2023-07-22T19:38:54;3.30;;;1.93;;
1877;SDS011;939;51.426;6.972;2023-07-22T19:41:21;4.40;;;2.33;;
1877;SDS011;939;51.426;6.972;2023-07-22T19:43:48;2.13;;;1.60;;
1877;SDS011;939;51.426;6.972;2023-07-22T19:46:15;3.57;;;2.13;;
1877;SDS011;939;51.426;6.972;2023-07-22T19:48:45;1.73;;;1.47;;
1877;SDS011;939;51.426;6.972;2023-07-22T19:51:13;3.07;;;2.13;;
1877;SDS011;939;51.426;6.972;2023-07-22T19:53:40;2.87;;;1.63;;
1877;SDS011;939;51.426;6.972;2023-07-22T19:56:10;2.50;;;1.97;;
1877;SDS011;939;51.426;6.972;2023-07-22T19:58:37;2.87;;;1.70;;
1877;SDS011;939;51.426;6.972;2023-07-22T20:01:04;3.30;;;1.80;;
1877;SDS011;939;51.426;6.972;2023-07-22T20:03:32;1.83;;;1.70;;
1877;SDS011;939;51.426;6.972;2023-07-22T20:06:01;4.53;;;1.80;;
1877;SDS011;939;51.426;6.972;2023-07-22T20:08:30;2.53;;;1.57;;
1877;SDS011;939;51.426;6.972;2023-07-22T20:10:57;6.63;;;2.20;;
1877;SDS011;939;51.426;6.972;2023-07-22T20:13:24;3.90;;;2.23;;
